createdAt,value
2017-04-01T00:00:38.312Z,15.73
2017-04-01T00:01:37.351Z,18.75
2017-04-01T00:02:36.314Z,20.70
2017-04-01T00:03:35.240Z,19.27
2017-04-01T00:04:34.635Z,19.88
2017-04-01T00:05:33.660Z,20.88
2017-04-01T00:06:32.756Z,20.40
2017-04-01T00:07:31.711Z,19.40
2017-04-01T00:08:30.759Z,20.85
2017-04-01T00:09:29.796Z,19.82
2017-04-01T00:10:29.215Z,20.25
2017-04-01T00:11:28.344Z,20.68
2017-04-01T00:12:27.413Z,19.47
2017-04-01T00:13:26.471Z,18.77
2017-04-01T00:14:25.492Z,18.87
2017-04-01T00:15:24.463Z,18.72
2017-04-01T00:16:23.543Z,19.35
2017-04-01T00:17:22.174Z,21.10
2017-04-01T00:18:21.885Z,22.02
2017-04-01T00:19:20.920Z,21.23
2017-04-01T00:20:19.919Z,21.07
2017-04-01T00:21:18.947Z,19.77
2017-04-01T00:22:17.530Z,17.52
2017-04-01T00:23:16.613Z,19.62
2017-04-01T00:24:15.622Z,20.02
2017-04-01T00:25:14.649Z,19.80
2017-04-01T00:26:13.994Z,17.42
2017-04-01T00:27:13.056Z,18.98
2017-04-01T00:28:12.000Z,18.05
2017-04-01T00:29:11.028Z,20.55
2017-04-01T00:30:09.647Z,18.78
2017-04-01T00:31:08.647Z,19.17
2017-04-01T00:32:07.240Z,21.93
2017-04-01T00:33:05.812Z,21.73
2017-04-01T00:34:04.886Z,22.10
2017-04-01T00:35:04.077Z,22.12
2017-04-01T00:36:03.078Z,22.65
2017-04-01T00:37:02.111Z,21.45
2017-04-01T00:38:01.040Z,22.37
2017-04-01T00:39:00.073Z,21.58
2017-04-01T00:39:59.435Z,21.42
2017-04-01T00:40:58.485Z,19.47
2017-04-01T00:41:57.481Z,22.33
2017-04-01T00:42:56.497Z,19.42
2017-04-01T00:43:55.468Z,20.55
2017-04-01T00:44:54.125Z,20.92
2017-04-01T00:45:53.152Z,20.52
2017-04-01T00:46:52.163Z,19.93
2017-04-01T00:47:51.191Z,19.13
2017-04-01T00:48:50.144Z,20.52
2017-04-01T00:49:49.207Z,17.83
2017-04-01T00:50:48.162Z,20.33
2017-04-01T00:51:47.154Z,19.20
2017-04-01T00:52:46.171Z,18.37
2017-04-01T00:53:45.195Z,17.52
2017-04-01T00:54:44.144Z,17.58
2017-04-01T00:55:43.216Z,18.70
2017-04-01T00:56:42.260Z,21.50
2017-04-01T00:57:41.283Z,18.17
2017-04-01T00:58:40.328Z,18.22
2017-04-01T00:59:39.299Z,17.45
2017-04-01T01:00:37.883Z,18.60
2017-04-01T01:01:36.536Z,18.03
2017-04-01T01:02:35.556Z,18.15
2017-04-01T01:03:35.408Z,19.12
2017-04-01T01:04:34.426Z,18.67
2017-04-01T01:05:33.115Z,18.95
2017-04-01T01:06:32.097Z,19.67
2017-04-01T01:07:31.141Z,18.68
2017-04-01T01:08:29.783Z,19.10
2017-04-01T01:09:28.759Z,18.03
2017-04-01T01:10:27.777Z,18.68
2017-04-01T01:11:27.238Z,18.38
2017-04-01T01:12:25.773Z,18.32
2017-04-01T01:13:25.256Z,18.72
2017-04-01T01:14:24.240Z,17.48
2017-04-01T01:15:22.992Z,17.93
2017-04-01T01:16:22.022Z,17.25
2017-04-01T01:17:21.043Z,18.43
2017-04-01T01:18:20.062Z,18.02
2017-04-01T01:19:19.562Z,16.02
2017-04-01T01:20:18.519Z,17.77
2017-04-01T01:21:17.509Z,18.30
2017-04-01T01:22:16.555Z,15.20
2017-04-01T01:23:15.184Z,16.40
2017-04-01T01:24:13.765Z,16.67
2017-04-01T01:25:12.811Z,15.47
2017-04-01T01:26:11.784Z,15.95
2017-04-01T01:27:10.814Z,16.25
2017-04-01T01:28:09.843Z,15.25
2017-04-01T01:29:08.794Z,14.75
2017-04-01T01:30:07.854Z,14.93
2017-04-01T01:31:06.868Z,15.83
2017-04-01T01:32:05.538Z,14.98
2017-04-01T01:33:04.539Z,16.00
2017-04-01T01:34:03.613Z,16.22
2017-04-01T01:35:02.247Z,16.12
2017-04-01T01:36:00.896Z,16.22
2017-04-01T01:36:59.928Z,14.38
2017-04-01T01:37:58.938Z,16.48
2017-04-01T01:38:57.899Z,16.12
2017-04-01T01:39:56.903Z,15.32
2017-04-01T01:40:55.923Z,15.28
2017-04-01T01:41:54.910Z,16.25
2017-04-01T01:42:53.898Z,15.47
2017-04-01T01:43:52.842Z,16.80
2017-04-01T01:44:51.834Z,16.78
2017-04-01T01:45:50.914Z,16.55
2017-04-01T01:46:50.609Z,16.18
2017-04-01T01:47:49.635Z,15.37
2017-04-01T01:48:48.618Z,14.70
2017-04-01T01:49:47.663Z,16.90
2017-04-01T01:50:46.700Z,17.67
2017-04-01T01:51:45.677Z,16.17
2017-04-01T01:52:44.256Z,14.82
2017-04-01T01:53:43.235Z,14.75
2017-04-01T01:54:42.209Z,14.82
2017-04-01T01:55:41.087Z,16.50
2017-04-01T01:56:40.076Z,15.87
2017-04-01T01:57:39.032Z,15.37
2017-04-01T01:58:38.047Z,15.45
2017-04-01T01:59:37.005Z,17.58
2017-04-01T02:00:36.008Z,17.53
2017-04-01T02:01:35.092Z,15.95
2017-04-01T02:02:33.748Z,15.83
2017-04-01T02:03:32.792Z,17.72
2017-04-01T02:04:31.712Z,16.63
2017-04-01T02:05:30.753Z,15.93
2017-04-01T02:06:29.740Z,15.55
2017-04-01T02:07:28.427Z,16.23
2017-04-01T02:08:27.472Z,17.07
2017-04-01T02:09:26.465Z,16.88
2017-04-01T02:10:25.511Z,15.65
2017-04-01T02:11:24.544Z,15.57
2017-04-01T02:12:23.549Z,16.40
2017-04-01T02:13:22.620Z,16.47
2017-04-01T02:14:21.658Z,16.38
2017-04-01T02:15:20.816Z,15.20
2017-04-01T02:16:19.816Z,15.42
2017-04-01T02:17:18.832Z,16.48
2017-04-01T02:18:17.879Z,16.37
2017-04-01T02:19:16.875Z,15.33
2017-04-01T02:20:15.478Z,16.65
2017-04-01T02:21:14.460Z,15.67
2017-04-01T02:22:13.392Z,16.20
2017-04-01T02:23:12.398Z,15.10
2017-04-01T02:24:11.414Z,13.90
2017-04-01T02:25:10.439Z,15.62
2017-04-01T02:26:09.442Z,16.23
2017-04-01T02:27:08.075Z,15.32
2017-04-01T02:28:06.744Z,16.00
2017-04-01T02:29:05.812Z,14.87
2017-04-01T02:30:04.824Z,14.40
2017-04-01T02:31:03.396Z,14.92
2017-04-01T02:32:02.511Z,14.60
2017-04-01T02:33:01.536Z,14.10
2017-04-01T02:34:00.500Z,14.17
2017-04-01T02:34:59.531Z,15.00
2017-04-01T02:35:58.556Z,15.15
2017-04-01T02:36:57.628Z,14.43
2017-04-01T02:37:56.628Z,14.88
2017-04-01T02:38:55.633Z,15.37
2017-04-01T02:39:55.070Z,15.23
2017-04-01T02:40:54.023Z,15.42
2017-04-01T02:41:52.966Z,15.42
2017-04-01T02:42:52.006Z,14.28
2017-04-01T02:43:50.968Z,16.23
2017-04-01T02:44:49.990Z,13.68
2017-04-01T02:45:48.944Z,15.65
2017-04-01T02:46:47.870Z,15.20
2017-04-01T02:47:46.911Z,15.05
2017-04-01T02:48:45.962Z,15.28
2017-04-01T02:49:44.967Z,14.88
2017-04-01T02:50:43.976Z,14.45
2017-04-01T02:51:43.027Z,14.03
2017-04-01T02:52:41.998Z,15.28
2017-04-01T02:53:40.994Z,15.65
2017-04-01T02:54:39.994Z,15.63
2017-04-01T02:55:39.016Z,16.58
2017-04-01T02:56:37.624Z,14.60
2017-04-01T02:57:36.651Z,14.80
2017-04-01T02:58:35.244Z,14.17
2017-04-01T02:59:34.263Z,15.23
2017-04-01T03:00:33.315Z,14.80
2017-04-01T03:01:32.723Z,13.57
2017-04-01T03:02:31.735Z,14.20
2017-04-01T03:03:30.707Z,14.95
2017-04-01T03:04:29.316Z,13.93
2017-04-01T03:05:28.310Z,15.13
2017-04-01T03:06:26.948Z,13.48
2017-04-01T03:07:26.360Z,14.52
2017-04-01T03:08:25.375Z,14.88
2017-04-01T03:09:24.726Z,14.38
2017-04-01T03:10:23.796Z,15.15
2017-04-01T03:11:22.822Z,15.08
2017-04-01T03:12:21.847Z,15.00
2017-04-01T03:13:20.863Z,14.30
2017-04-01T03:14:19.838Z,15.70
2017-04-01T03:15:18.924Z,15.40
2017-04-01T03:16:18.303Z,13.20
2017-04-01T03:17:17.284Z,14.98
2017-04-01T03:18:16.240Z,14.75
2017-04-01T03:19:14.890Z,14.88
2017-04-01T03:20:13.916Z,13.13
2017-04-01T03:21:12.923Z,15.13
2017-04-01T03:22:11.905Z,14.60
2017-04-01T03:23:10.943Z,14.63
2017-04-01T03:24:09.956Z,13.20
2017-04-01T03:25:08.561Z,13.93
2017-04-01T03:26:07.644Z,15.62
2017-04-01T03:27:06.675Z,13.80
2017-04-01T03:28:05.626Z,14.48
2017-04-01T03:29:04.212Z,14.18
2017-04-01T03:30:03.271Z,14.70
2017-04-01T03:31:02.250Z,14.37
2017-04-01T03:32:01.227Z,13.27
2017-04-01T03:32:59.769Z,14.95
2017-04-01T03:33:58.747Z,15.65
2017-04-01T03:34:57.770Z,14.62
2017-04-01T03:35:56.783Z,15.15
2017-04-01T03:36:55.807Z,14.55
2017-04-01T03:37:54.795Z,14.98
2017-04-01T03:38:53.419Z,14.35
2017-04-01T03:39:52.473Z,15.20
2017-04-01T03:40:51.467Z,15.30
2017-04-01T03:41:50.110Z,16.28
2017-04-01T03:42:49.131Z,15.13
2017-04-01T03:43:48.183Z,16.78
2017-04-01T03:44:47.231Z,15.05
2017-04-01T03:45:45.828Z,14.78
2017-04-01T03:46:44.788Z,14.48
2017-04-01T03:47:43.752Z,14.87
2017-04-01T03:48:42.364Z,15.60
2017-04-01T03:49:41.363Z,14.58
2017-04-01T03:50:40.359Z,14.90
2017-04-01T03:51:39.346Z,15.55
2017-04-01T03:52:38.316Z,14.38
2017-04-01T03:53:37.715Z,15.33
2017-04-01T03:54:36.338Z,13.85
2017-04-01T03:55:34.940Z,13.50
2017-04-01T03:56:34.279Z,14.77
2017-04-01T03:57:33.336Z,15.88
2017-04-01T03:58:31.927Z,15.85
2017-04-01T03:59:30.931Z,15.23
2017-04-01T04:00:29.940Z,14.92
2017-04-01T04:01:28.936Z,14.87
2017-04-01T04:02:28.646Z,16.08
2017-04-01T04:03:27.243Z,15.05
2017-04-01T04:04:26.275Z,13.28
2017-04-01T04:05:25.276Z,14.87
2017-04-01T04:06:24.372Z,15.22
2017-04-01T04:07:23.427Z,14.47
2017-04-01T04:08:22.419Z,15.85
2017-04-01T04:09:21.571Z,15.35
2017-04-01T04:10:20.121Z,15.80
2017-04-01T04:11:19.143Z,13.87
2017-04-01T04:12:18.138Z,15.05
2017-04-01T04:13:17.110Z,15.68
2017-04-01T04:14:16.110Z,14.55
2017-04-01T04:15:15.043Z,15.20
2017-04-01T04:16:14.100Z,15.35
2017-04-01T04:17:13.069Z,14.87
2017-04-01T04:18:12.126Z,15.30
2017-04-01T04:19:11.050Z,14.70
2017-04-01T04:20:10.094Z,14.75
2017-04-01T04:21:09.079Z,15.52
2017-04-01T04:22:08.083Z,14.90
2017-04-01T04:23:07.068Z,13.83
2017-04-01T04:24:05.696Z,13.70
2017-04-01T04:25:04.646Z,14.55
2017-04-01T04:26:03.703Z,14.85
2017-04-01T04:27:02.298Z,14.97
2017-04-01T04:28:01.283Z,15.42
2017-04-01T04:29:00.271Z,14.57
2017-04-01T04:29:59.619Z,14.48
2017-04-01T04:30:58.620Z,14.65
2017-04-01T04:31:57.622Z,15.27
2017-04-01T04:32:56.567Z,15.40
2017-04-01T04:33:55.560Z,15.45
2017-04-01T04:34:54.558Z,15.33
2017-04-01T04:35:53.591Z,15.53
2017-04-01T04:36:52.569Z,14.80
2017-04-01T04:37:51.626Z,14.52
2017-04-01T04:38:50.612Z,15.70
2017-04-01T04:39:49.599Z,14.57
2017-04-01T04:40:48.239Z,14.85
2017-04-01T04:41:47.176Z,14.77
2017-04-01T04:42:46.211Z,14.90
2017-04-01T04:43:45.139Z,14.35
2017-04-01T04:44:43.788Z,13.83
2017-04-01T04:45:42.778Z,14.57
2017-04-01T04:46:41.803Z,14.77
2017-04-01T04:47:40.395Z,13.62
2017-04-01T04:48:38.994Z,14.18
2017-04-01T04:49:37.947Z,13.25
2017-04-01T04:50:36.872Z,14.02
2017-04-01T04:51:35.898Z,14.33
2017-04-01T04:52:34.961Z,14.30
2017-04-01T04:53:34.311Z,14.05
2017-04-01T04:54:33.282Z,14.18
2017-04-01T04:55:32.276Z,13.68
2017-04-01T04:56:31.279Z,14.07
2017-04-01T04:57:30.255Z,13.62
2017-04-01T04:58:28.874Z,13.25
2017-04-01T04:59:27.872Z,12.32
2017-04-01T05:00:26.877Z,14.02
2017-04-01T05:01:25.880Z,14.50
2017-04-01T05:02:24.881Z,14.35
2017-04-01T05:03:23.878Z,12.73
2017-04-01T05:04:23.675Z,14.68
2017-04-01T05:05:22.655Z,13.05
2017-04-01T05:06:21.724Z,13.52
2017-04-01T05:07:20.684Z,14.32
2017-04-01T05:08:19.740Z,14.13
2017-04-01T05:09:18.755Z,14.17
2017-04-01T05:10:17.762Z,14.05
2017-04-01T05:11:16.771Z,13.55
2017-04-01T05:12:15.393Z,13.97
2017-04-01T05:13:14.384Z,14.58
2017-04-01T05:14:13.365Z,13.93
2017-04-01T05:15:12.435Z,13.93
2017-04-01T05:16:11.410Z,15.25
2017-04-01T05:17:10.427Z,13.68
2017-04-01T05:18:09.512Z,14.93
2017-04-01T05:19:08.434Z,14.23
2017-04-01T05:20:07.483Z,15.28
2017-04-01T05:21:06.480Z,14.62
2017-04-01T05:22:05.457Z,15.63
2017-04-01T05:23:04.491Z,14.83
2017-04-01T05:24:03.471Z,14.08
2017-04-01T05:25:02.435Z,14.62
2017-04-01T05:26:01.484Z,14.60
2017-04-01T05:27:00.480Z,14.03
2017-04-01T05:27:59.675Z,14.53
2017-04-01T05:28:58.615Z,15.20
2017-04-01T05:29:57.236Z,15.90
2017-04-01T05:30:56.213Z,15.25
2017-04-01T05:31:54.798Z,14.02
2017-04-01T05:32:53.778Z,14.42
2017-04-01T05:33:52.407Z,14.98
2017-04-01T05:34:51.392Z,14.27
2017-04-01T05:35:50.412Z,15.23
2017-04-01T05:36:49.408Z,13.82
2017-04-01T05:37:48.751Z,14.15
2017-04-01T05:38:47.704Z,13.95
2017-04-01T05:39:46.749Z,14.83
2017-04-01T05:40:45.307Z,14.53
2017-04-01T05:41:44.270Z,15.68
2017-04-01T05:42:42.819Z,14.20
2017-04-01T05:43:41.777Z,14.97
2017-04-01T05:44:40.811Z,13.87
2017-04-01T05:45:39.846Z,16.07
2017-04-01T05:46:38.799Z,14.68
2017-04-01T05:47:37.851Z,15.27
2017-04-01T05:48:36.523Z,15.37
2017-04-01T05:49:35.537Z,15.63
2017-04-01T05:50:34.587Z,16.33
2017-04-01T05:51:33.680Z,14.58
2017-04-01T05:52:32.649Z,15.30
2017-04-01T05:53:31.672Z,14.37
2017-04-01T05:54:30.675Z,15.32
2017-04-01T05:55:29.688Z,14.75
2017-04-01T05:56:28.680Z,16.05
2017-04-01T05:57:27.712Z,15.38
2017-04-01T05:58:26.676Z,14.72
2017-04-01T05:59:25.745Z,14.47
2017-04-01T06:00:24.708Z,13.92
2017-04-01T06:01:23.681Z,14.60
2017-04-01T06:02:22.767Z,15.38
2017-04-01T06:03:21.767Z,14.37
2017-04-01T06:04:20.751Z,16.02
2017-04-01T06:05:19.393Z,16.20
2017-04-01T06:06:18.015Z,14.12
2017-04-01T06:07:16.987Z,14.90
2017-04-01T06:08:15.966Z,15.48
2017-04-01T06:09:14.983Z,14.48
2017-04-01T06:10:14.703Z,14.80
2017-04-01T06:11:13.772Z,13.68
2017-04-01T06:12:12.312Z,15.78
2017-04-01T06:13:11.584Z,15.10
2017-04-01T06:14:10.542Z,16.67
2017-04-01T06:15:09.571Z,16.08
2017-04-01T06:16:08.571Z,15.58
2017-04-01T06:17:07.198Z,14.78
2017-04-01T06:18:06.275Z,15.13
2017-04-01T06:19:05.343Z,14.60
2017-04-01T06:20:04.327Z,14.77
2017-04-01T06:21:02.957Z,14.92
2017-04-01T06:22:02.448Z,15.12
2017-04-01T06:23:01.827Z,14.17
2017-04-01T06:24:00.823Z,14.78
2017-04-01T06:24:59.828Z,14.95
2017-04-01T06:25:58.851Z,14.70
2017-04-01T06:26:57.875Z,15.73
2017-04-01T06:27:56.864Z,14.15
2017-04-01T06:28:55.891Z,15.23
2017-04-01T06:29:54.867Z,15.10
2017-04-01T06:30:53.502Z,14.48
2017-04-01T06:31:52.511Z,13.88
2017-04-01T06:32:51.503Z,14.15
2017-04-01T06:33:50.483Z,13.77
2017-04-01T06:34:49.079Z,14.58
2017-04-01T06:35:48.021Z,13.88
2017-04-01T06:36:47.054Z,14.02
2017-04-01T06:37:46.088Z,14.12
2017-04-01T06:38:44.699Z,14.92
2017-04-01T06:39:43.634Z,13.90
2017-04-01T06:40:42.236Z,14.20
2017-04-01T06:41:41.194Z,12.95
2017-04-01T06:42:40.162Z,14.67
2017-04-01T06:43:39.167Z,14.50
2017-04-01T06:44:38.198Z,13.87
2017-04-01T06:45:37.146Z,13.68
2017-04-01T06:46:36.144Z,14.58
2017-04-01T06:47:35.140Z,13.72
2017-04-01T06:48:33.720Z,14.20
2017-04-01T06:49:32.678Z,13.23
2017-04-01T06:50:31.726Z,12.87
2017-04-01T06:51:30.288Z,13.52
2017-04-01T06:52:29.267Z,13.73
2017-04-01T06:53:28.250Z,14.17
2017-04-01T06:54:27.287Z,14.35
2017-04-01T06:55:26.282Z,13.73
2017-04-01T06:56:25.260Z,13.48
2017-04-01T06:57:23.794Z,13.90
2017-04-01T06:58:22.825Z,14.35
2017-04-01T06:59:21.496Z,14.47
2017-04-01T07:00:20.512Z,14.30
2017-04-01T07:01:19.132Z,14.35
2017-04-01T07:02:19.452Z,13.35
2017-04-01T07:03:18.471Z,12.85
2017-04-01T07:04:17.532Z,14.32
2017-04-01T07:05:16.541Z,14.17
2017-04-01T07:06:15.546Z,13.57
2017-04-01T07:07:14.524Z,13.70
2017-04-01T07:08:13.492Z,14.60
2017-04-01T07:09:12.599Z,14.02
2017-04-01T07:10:11.613Z,13.32
2017-04-01T07:11:10.651Z,15.50
2017-04-01T07:12:09.635Z,15.30
2017-04-01T07:13:08.591Z,14.10
2017-04-01T07:14:07.590Z,14.58
2017-04-01T07:15:06.215Z,14.13
2017-04-01T07:16:04.793Z,13.25
2017-04-01T07:17:03.848Z,13.92
2017-04-01T07:18:02.833Z,13.62
2017-04-01T07:19:01.839Z,12.43
2017-04-01T07:20:00.819Z,15.62
2017-04-01T07:20:59.842Z,13.35
2017-04-01T07:21:58.881Z,13.70
2017-04-01T07:22:57.466Z,14.17
2017-04-01T07:23:56.443Z,13.25
2017-04-01T07:24:55.399Z,13.85
2017-04-01T07:25:54.474Z,13.12
2017-04-01T07:26:53.451Z,13.35
2017-04-01T07:27:52.510Z,14.27
2017-04-01T07:28:51.505Z,14.00
2017-04-01T07:29:50.586Z,12.90
2017-04-01T07:30:49.214Z,13.98
2017-04-01T07:31:47.880Z,13.73
2017-04-01T07:32:46.906Z,14.00
2017-04-01T07:33:45.557Z,14.75
2017-04-01T07:34:44.287Z,14.05
2017-04-01T07:35:42.929Z,12.97
2017-04-01T07:36:41.999Z,13.95
2017-04-01T07:37:41.435Z,14.42
2017-04-01T07:38:40.659Z,13.90
2017-04-01T07:39:39.756Z,14.42
2017-04-01T07:40:38.799Z,14.37
2017-04-01T07:41:37.778Z,14.10
2017-04-01T07:42:36.903Z,14.57
2017-04-01T07:43:35.941Z,14.60
2017-04-01T07:44:34.588Z,14.78
2017-04-01T07:45:33.612Z,14.52
2017-04-01T07:46:32.643Z,14.92
2017-04-01T07:47:31.647Z,14.83
2017-04-01T07:48:30.641Z,15.55
2017-04-01T07:49:29.634Z,15.23
2017-04-01T07:50:28.654Z,14.97
2017-04-01T07:51:27.191Z,16.10
2017-04-01T07:52:26.202Z,14.57
2017-04-01T07:53:25.179Z,14.92
2017-04-01T07:54:24.186Z,14.90
2017-04-01T07:55:23.240Z,14.08
2017-04-01T07:56:22.224Z,14.88
2017-04-01T07:57:21.195Z,13.15
2017-04-01T07:58:20.152Z,13.87
2017-04-01T07:59:18.754Z,16.38
2017-04-01T08:00:17.719Z,15.15
2017-04-01T08:01:16.710Z,14.45
2017-04-01T08:02:15.715Z,14.88
2017-04-01T08:03:15.407Z,14.32
2017-04-01T08:04:14.411Z,14.37
2017-04-01T08:05:13.428Z,14.22
2017-04-01T08:06:12.427Z,14.75
2017-04-01T08:07:11.842Z,14.48
2017-04-01T08:08:10.779Z,14.28
2017-04-01T08:09:09.787Z,13.63
2017-04-01T08:10:08.801Z,14.35
2017-04-01T08:11:07.783Z,15.22
2017-04-01T08:12:06.803Z,16.45
2017-04-01T08:13:05.836Z,13.48
2017-04-01T08:14:04.806Z,14.85
2017-04-01T08:15:04.131Z,13.83
2017-04-01T08:16:03.144Z,15.75
2017-04-01T08:17:02.140Z,14.90
2017-04-01T08:18:01.099Z,15.05
2017-04-01T08:19:00.116Z,13.33
2017-04-01T08:19:59.127Z,13.23
2017-04-01T08:20:58.728Z,13.93
2017-04-01T08:21:57.704Z,14.02
2017-04-01T08:22:57.584Z,12.55
2017-04-01T08:23:56.547Z,13.38
2017-04-01T08:24:55.563Z,12.80
2017-04-01T08:25:54.552Z,12.00
2017-04-01T08:26:54.330Z,11.42
2017-04-01T08:27:52.863Z,12.53
2017-04-01T08:28:51.863Z,12.18
2017-04-01T08:29:50.847Z,11.57
2017-04-01T08:30:49.812Z,12.73
2017-04-01T08:31:48.835Z,12.62
2017-04-01T08:32:47.786Z,12.45
2017-04-01T08:33:46.804Z,12.30
2017-04-01T08:34:45.779Z,11.98
2017-04-01T08:35:44.802Z,11.77
2017-04-01T08:36:43.818Z,11.27
2017-04-01T08:37:42.794Z,10.97
2017-04-01T08:38:41.839Z,10.85
2017-04-01T08:39:40.812Z,10.45
2017-04-01T08:40:39.350Z,11.07
2017-04-01T08:41:38.387Z,9.55
2017-04-01T08:42:37.419Z,9.45
2017-04-01T08:43:36.390Z,8.18
2017-04-01T08:44:35.395Z,8.15
2017-04-01T08:45:34.166Z,9.55
2017-04-01T08:46:33.308Z,9.05
2017-04-01T08:47:32.734Z,8.72
2017-04-01T08:48:32.221Z,9.62
2017-04-01T08:49:30.812Z,11.28
2017-04-01T08:50:29.848Z,11.90
2017-04-01T08:51:28.988Z,10.80
2017-04-01T08:52:28.253Z,10.05
2017-04-01T08:53:27.297Z,11.15
2017-04-01T08:54:26.363Z,10.70
2017-04-01T08:55:25.442Z,10.88
2017-04-01T08:56:24.598Z,11.23
2017-04-01T08:57:23.596Z,11.43
2017-04-01T08:58:22.589Z,12.37
2017-04-01T08:59:21.247Z,10.65
2017-04-01T09:00:20.715Z,10.48
2017-04-01T09:01:20.154Z,11.58
2017-04-01T09:02:18.747Z,10.60
2017-04-01T09:03:17.735Z,11.82
2017-04-01T09:04:16.737Z,12.85
2017-04-01T09:05:15.736Z,12.82
2017-04-01T09:06:15.119Z,11.65
2017-04-01T09:07:14.179Z,13.70
2017-04-01T09:08:13.180Z,12.05
2017-04-01T09:09:12.171Z,9.25
2017-04-01T09:10:10.779Z,9.02
2017-04-01T09:11:09.818Z,8.60
2017-04-01T09:12:08.852Z,9.02
2017-04-01T09:13:07.797Z,8.28
2017-04-01T09:14:06.795Z,7.53
2017-04-01T09:15:05.760Z,8.72
2017-04-01T09:16:04.761Z,8.85
2017-04-01T09:17:03.812Z,8.70
2017-04-01T09:18:02.825Z,8.95
2017-04-01T09:19:02.134Z,8.78
2017-04-01T09:20:01.112Z,9.20
2017-04-01T09:21:00.132Z,8.35
2017-04-01T09:21:59.123Z,7.58
2017-04-01T09:22:58.132Z,8.27
2017-04-01T09:23:56.767Z,8.17
2017-04-01T09:24:55.776Z,8.27
2017-04-01T09:25:54.788Z,8.73
2017-04-01T09:26:54.152Z,8.38
2017-04-01T09:27:53.139Z,9.13
2017-04-01T09:28:51.732Z,7.90
2017-04-01T09:29:50.751Z,8.15
2017-04-01T09:30:49.718Z,8.35
2017-04-01T09:31:48.672Z,8.78
2017-04-01T09:32:47.262Z,9.43
2017-04-01T09:33:46.608Z,7.77
2017-04-01T09:34:45.587Z,7.95
2017-04-01T09:35:44.647Z,8.00
2017-04-01T09:36:43.667Z,7.88
2017-04-01T09:37:42.679Z,8.98
2017-04-01T09:38:41.658Z,8.25
2017-04-01T09:39:40.632Z,8.02
2017-04-01T09:40:39.584Z,8.65
2017-04-01T09:41:38.628Z,7.80
2017-04-01T09:42:37.619Z,7.25
2017-04-01T09:43:36.632Z,7.85
2017-04-01T09:44:36.351Z,7.03
2017-04-01T09:45:35.326Z,7.70
2017-04-01T09:46:33.899Z,7.57
2017-04-01T09:47:33.003Z,6.90
2017-04-01T09:48:31.923Z,7.02
2017-04-01T09:49:30.948Z,9.42
2017-04-01T09:50:29.908Z,7.23
2017-04-01T09:51:28.954Z,7.65
2017-04-01T09:52:27.956Z,7.42
2017-04-01T09:53:26.977Z,7.22
2017-04-01T09:54:25.986Z,7.48
2017-04-01T09:55:25.008Z,7.87
2017-04-01T09:56:23.996Z,7.88
2017-04-01T09:57:23.344Z,7.65
2017-04-01T09:58:22.396Z,7.22
2017-04-01T09:59:21.374Z,6.45
2017-04-01T10:00:20.972Z,7.58
2017-04-01T10:01:20.036Z,6.67
2017-04-01T10:02:19.447Z,8.20
2017-04-01T10:03:18.035Z,7.05
2017-04-01T10:04:16.969Z,6.27
2017-04-01T10:05:16.015Z,7.03
2017-04-01T10:06:14.984Z,8.07
2017-04-01T10:07:13.959Z,6.52
2017-04-01T10:08:12.587Z,6.98
2017-04-01T10:09:11.591Z,7.10
2017-04-01T10:10:10.569Z,7.72
2017-04-01T10:11:09.505Z,7.22
2017-04-01T10:12:08.518Z,7.23
2017-04-01T10:13:07.115Z,7.20
2017-04-01T10:14:06.119Z,7.70
2017-04-01T10:15:05.158Z,7.57
2017-04-01T10:16:04.212Z,7.47
2017-04-01T10:17:03.235Z,8.33
2017-04-01T10:18:02.222Z,8.65
2017-04-01T10:19:01.255Z,7.82
2017-04-01T10:20:00.153Z,8.20
2017-04-01T10:20:59.189Z,8.18
2017-04-01T10:21:58.173Z,7.52
2017-04-01T10:22:57.091Z,7.08
2017-04-01T10:23:56.140Z,7.90
2017-04-01T10:24:55.503Z,8.33
2017-04-01T10:25:54.484Z,8.40
2017-04-01T10:26:53.483Z,8.50
2017-04-01T10:27:52.436Z,8.87
2017-04-01T10:28:51.436Z,8.82
2017-04-01T10:29:50.447Z,9.12
2017-04-01T10:30:49.432Z,7.98
2017-04-01T10:31:48.399Z,8.83
2017-04-01T10:32:47.331Z,7.78
2017-04-01T10:33:46.307Z,9.22
2017-04-01T10:34:45.287Z,8.65
2017-04-01T10:35:44.323Z,8.10
2017-04-01T10:36:43.315Z,9.10
2017-04-01T10:37:42.340Z,9.73
2017-04-01T10:38:41.266Z,9.55
2017-04-01T10:39:40.246Z,9.83
2017-04-01T10:40:39.241Z,8.87
2017-04-01T10:41:38.331Z,8.58
2017-04-01T10:42:37.334Z,7.77
2017-04-01T10:43:36.362Z,8.67
2017-04-01T10:44:35.335Z,8.62
2017-04-01T10:45:34.339Z,9.47
2017-04-01T10:46:33.344Z,8.42
2017-04-01T10:47:32.411Z,10.08
2017-04-01T10:48:31.403Z,8.40
2017-04-01T10:49:30.346Z,8.30
2017-04-01T10:50:29.295Z,8.40
2017-04-01T10:51:28.483Z,7.90
2017-04-01T10:52:27.516Z,8.38
2017-04-01T10:53:26.519Z,8.97
2017-04-01T10:54:25.485Z,8.40
2017-04-01T10:55:24.437Z,7.73
2017-04-01T10:56:23.427Z,8.60
2017-04-01T10:57:22.421Z,7.50
2017-04-01T10:58:21.047Z,7.45
2017-04-01T10:59:20.034Z,8.02
2017-04-01T11:00:19.111Z,8.15
2017-04-01T11:01:18.133Z,7.28
2017-04-01T11:02:17.128Z,7.05
2017-04-01T11:03:15.761Z,8.22
2017-04-01T11:04:14.757Z,8.10
2017-04-01T11:05:13.726Z,7.40
2017-04-01T11:06:12.302Z,7.80
2017-04-01T11:07:11.287Z,8.35
2017-04-01T11:08:10.263Z,7.03
2017-04-01T11:09:08.836Z,7.93
2017-04-01T11:10:07.825Z,8.77
2017-04-01T11:11:06.833Z,8.47
2017-04-01T11:12:05.887Z,7.95
2017-04-01T11:13:04.871Z,7.73
2017-04-01T11:14:03.900Z,9.27
2017-04-01T11:15:02.845Z,9.33
2017-04-01T11:16:01.824Z,8.55
2017-04-01T11:17:00.921Z,7.27
2017-04-01T11:17:59.942Z,7.80
2017-04-01T11:18:58.528Z,7.78
2017-04-01T11:19:57.483Z,8.55
2017-04-01T11:20:56.483Z,9.18
2017-04-01T11:21:55.427Z,8.17
2017-04-01T11:22:54.495Z,8.03
2017-04-01T11:23:53.523Z,7.98
2017-04-01T11:24:52.083Z,8.40
2017-04-01T11:25:51.059Z,8.07
2017-04-01T11:26:49.729Z,9.28
2017-04-01T11:27:48.694Z,7.62
2017-04-01T11:28:47.645Z,8.58
2017-04-01T11:29:46.619Z,7.80
2017-04-01T11:30:45.587Z,7.65
2017-04-01T11:31:44.508Z,7.55
2017-04-01T11:32:43.554Z,9.32
2017-04-01T11:33:42.931Z,8.23
2017-04-01T11:34:42.327Z,9.12
2017-04-01T11:35:41.271Z,9.33
2017-04-01T11:36:40.284Z,9.78
2017-04-01T11:37:38.928Z,8.42
2017-04-01T11:38:37.920Z,7.93
2017-04-01T11:39:36.920Z,8.75
2017-04-01T11:40:35.931Z,7.98
2017-04-01T11:41:34.903Z,9.25
2017-04-01T11:42:33.488Z,9.05
2017-04-01T11:43:32.423Z,7.30
2017-04-01T11:44:31.488Z,8.63
2017-04-01T11:45:30.491Z,7.88
2017-04-01T11:46:29.508Z,8.45
2017-04-01T11:47:28.450Z,7.82
2017-04-01T11:48:27.427Z,8.13
2017-04-01T11:49:26.387Z,9.35
2017-04-01T11:50:25.386Z,9.27
2017-04-01T11:51:24.404Z,8.03
2017-04-01T11:52:22.994Z,8.50
2017-04-01T11:53:21.999Z,8.12
2017-04-01T11:54:20.995Z,8.97
2017-04-01T11:55:19.951Z,8.77
2017-04-01T11:56:19.325Z,7.65
2017-04-01T11:57:18.356Z,8.18
2017-04-01T11:58:17.431Z,7.95
2017-04-01T11:59:16.003Z,8.33
2017-04-01T12:00:15.343Z,8.98
2017-04-01T12:01:14.357Z,9.02
2017-04-01T12:02:12.907Z,8.30
2017-04-01T12:03:12.425Z,7.97
2017-04-01T12:04:11.427Z,7.27
2017-04-01T12:05:10.463Z,8.17
2017-04-01T12:06:09.408Z,8.15
2017-04-01T12:07:08.570Z,7.97
2017-04-01T12:08:07.572Z,9.45
2017-04-01T12:09:06.621Z,8.48
2017-04-01T12:10:05.374Z,8.25
2017-04-01T12:11:04.395Z,9.22
2017-04-01T12:12:03.002Z,8.65
2017-04-01T12:13:01.607Z,7.80
2017-04-01T12:14:00.172Z,7.35
2017-04-01T12:14:59.148Z,8.58
2017-04-01T12:15:58.187Z,7.33
2017-04-01T12:16:57.191Z,7.72
2017-04-01T12:17:56.204Z,7.93
2017-04-01T12:18:55.884Z,7.93
2017-04-01T12:19:54.934Z,7.43
2017-04-01T12:20:53.489Z,7.57
2017-04-01T12:21:52.663Z,7.60
2017-04-01T12:22:51.654Z,8.33
2017-04-01T12:23:50.651Z,7.70
2017-04-01T12:24:49.633Z,8.15
2017-04-01T12:25:48.258Z,6.97
2017-04-01T12:26:47.287Z,8.33
2017-04-01T12:27:46.300Z,8.35
2017-04-01T12:28:45.632Z,8.43
2017-04-01T12:29:45.612Z,9.38
2017-04-01T12:30:44.630Z,7.72
2017-04-01T12:31:43.619Z,8.85
2017-04-01T12:32:42.655Z,8.02
2017-04-01T12:33:41.727Z,8.32
2017-04-01T12:34:40.771Z,8.15
2017-04-01T12:35:40.532Z,8.30
2017-04-01T12:36:39.851Z,7.15
2017-04-01T12:37:38.556Z,8.35
2017-04-01T12:38:37.563Z,8.12
2017-04-01T12:39:36.616Z,7.83
2017-04-01T12:40:35.614Z,8.25
2017-04-01T12:41:34.627Z,7.23
2017-04-01T12:42:33.610Z,9.87
2017-04-01T12:43:32.213Z,8.13
2017-04-01T12:44:31.190Z,9.13
2017-04-01T12:45:30.165Z,8.42
2017-04-01T12:46:29.196Z,9.45
2017-04-01T12:47:27.783Z,8.48